createdAt,value
2019-02-10T00:01:27.296Z,33.8
2019-02-10T00:11:33.814Z,32.5
2019-02-10T00:21:26.638Z,36.3
2019-02-10T00:31:27.425Z,34.4
2019-02-10T00:41:27.100Z,36.3
2019-02-10T00:51:30.071Z,26.2
2019-02-10T01:01:32.098Z,28.4
2019-02-10T01:11:27.009Z,29.2
2019-02-10T01:21:27.968Z,22.7
2019-02-10T01:31:27.725Z,21.8
2019-02-10T01:41:27.517Z,27.3
2019-02-10T01:51:37.914Z,30.4
2019-02-10T02:01:27.502Z,29.6
2019-02-10T02:11:27.150Z,36.4
2019-02-10T02:21:27.092Z,35.0
2019-02-10T02:31:27.701Z,34.4
2019-02-10T02:41:27.267Z,34.5
2019-02-10T02:51:27.094Z,36.9
2019-02-10T03:01:26.810Z,34.8
2019-02-10T03:11:26.538Z,37.0
2019-02-10T03:21:26.496Z,37.9
2019-02-10T03:31:28.578Z,36.3
2019-02-10T03:41:27.526Z,39.9
2019-02-10T03:51:29.207Z,35.5
2019-02-10T04:01:26.740Z,33.3
2019-02-10T04:11:27.259Z,43.1
2019-02-10T04:21:28.268Z,46.1
2019-02-10T04:31:29.052Z,54.2
2019-02-10T04:41:26.527Z,67.5
2019-02-10T04:51:27.433Z,50.3
2019-02-10T05:01:27.652Z,51.6
2019-02-10T05:11:28.012Z,41.6
2019-02-10T05:21:27.922Z,36.6
2019-02-10T05:31:27.026Z,46.1
2019-02-10T05:41:26.594Z,43.6
2019-02-10T05:51:26.687Z,58.2
2019-02-10T06:01:27.659Z,55.4
2019-02-10T06:11:28.254Z,64.0
2019-02-10T06:21:27.024Z,53.4
2019-02-10T06:31:27.265Z,44.3
2019-02-10T06:41:26.882Z,46.9
2019-02-10T06:51:26.477Z,46.4
2019-02-10T07:01:28.223Z,43.1
2019-02-10T07:11:26.777Z,39.0
2019-02-10T07:21:26.798Z,36.3
2019-02-10T07:31:26.867Z,36.5
2019-02-10T07:41:26.798Z,38.7
2019-02-10T07:51:27.794Z,43.6
2019-02-10T08:01:27.116Z,38.8
2019-02-10T08:11:29.913Z,36.3
2019-02-10T08:21:26.698Z,29.8
2019-02-10T08:31:27.270Z,33.7
2019-02-10T08:41:27.445Z,44.1
2019-02-10T08:51:27.786Z,33.9
2019-02-10T09:01:26.621Z,34.5
2019-02-10T09:11:28.023Z,31.4
2019-02-10T09:21:27.806Z,29.1
2019-02-10T09:31:26.765Z,23.4
2019-02-10T09:41:26.875Z,22.6
2019-02-10T09:51:27.093Z,16.5
2019-02-10T10:01:27.047Z,14.6
2019-02-10T10:11:27.301Z,14.4
2019-02-10T10:21:28.060Z,17.5
2019-02-10T10:31:27.093Z,11.5
2019-02-10T10:41:28.283Z,12.2
2019-02-10T10:51:30.854Z,12.9
2019-02-10T11:01:28.968Z,10.8
2019-02-10T11:11:27.170Z,16.8
2019-02-10T11:21:28.611Z,8.6
2019-02-10T11:31:28.428Z,10.6
2019-02-10T11:41:29.189Z,11.9
2019-02-10T11:51:27.080Z,9.7
2019-02-10T12:01:28.007Z,10.1
2019-02-10T12:11:26.731Z,10.8
2019-02-10T12:21:32.963Z,10.9
2019-02-10T12:31:32.492Z,9.1
2019-02-10T12:41:32.615Z,10.4
2019-02-10T12:51:27.301Z,11.7
2019-02-10T13:01:27.589Z,8.9
2019-02-10T13:11:27.483Z,9.0
2019-02-10T13:21:27.602Z,16.1
2019-02-10T13:31:28.187Z,9.5
2019-02-10T13:41:26.827Z,9.7
2019-02-10T13:51:29.841Z,13.3
2019-02-10T14:01:26.744Z,8.4
2019-02-10T14:11:26.704Z,11.9
2019-02-10T14:21:26.613Z,12.3
2019-02-10T14:31:27.898Z,10.9
2019-02-10T14:41:29.490Z,15.7
2019-02-10T14:51:27.163Z,14.8
2019-02-10T15:01:29.269Z,13.1
2019-02-10T15:11:28.748Z,16.8
2019-02-10T15:21:28.605Z,15.1
2019-02-10T15:31:27.600Z,18.1
2019-02-10T15:41:27.952Z,19.5
2019-02-10T15:51:37.479Z,19.7
2019-02-10T16:01:28.286Z,15.4
2019-02-10T16:11:29.462Z,16.7
2019-02-10T16:21:27.922Z,20.1
2019-02-10T16:31:27.010Z,22.3
2019-02-10T16:41:26.760Z,17.5
2019-02-10T16:53:40.658Z,18.5
2019-02-10T17:01:28.112Z,21.2
2019-02-10T17:11:27.882Z,17.6
2019-02-10T17:21:27.711Z,22.2
2019-02-10T17:31:27.728Z,20.4
2019-02-10T17:41:26.383Z,23.2
2019-02-10T17:51:27.817Z,29.5
2019-02-10T18:01:26.563Z,31.3
2019-02-10T18:11:31.969Z,37.7
2019-02-10T18:21:28.560Z,39.4
2019-02-10T18:31:28.744Z,42.2
2019-02-10T18:41:26.748Z,38.6
2019-02-10T18:51:27.744Z,36.2
2019-02-10T19:01:27.331Z,37.6
2019-02-10T19:11:27.488Z,45.6
2019-02-10T19:21:28.013Z,39.8
2019-02-10T19:31:26.609Z,39.2
2019-02-10T19:41:27.973Z,31.3
2019-02-10T19:51:26.846Z,38.6
2019-02-10T20:01:26.483Z,34.3
2019-02-10T20:11:29.131Z,26.6
2019-02-10T20:21:27.608Z,23.5
2019-02-10T20:31:26.967Z,25.4
2019-02-10T20:41:26.562Z,23.7
2019-02-10T20:51:27.311Z,22.5
2019-02-10T21:01:28.614Z,21.3
2019-02-10T21:11:28.642Z,21.3
2019-02-10T21:21:26.796Z,17.5
2019-02-10T21:31:26.762Z,18.9
2019-02-10T21:41:26.358Z,29.2
2019-02-10T21:51:27.033Z,32.1
2019-02-10T22:01:27.834Z,32.1
2019-02-10T22:11:26.677Z,33.7
2019-02-10T22:21:29.899Z,31.0
2019-02-10T22:31:27.668Z,35.4
2019-02-10T22:41:28.726Z,32.6
2019-02-10T22:51:27.331Z,33.9
2019-02-10T23:01:27.948Z,29.5
2019-02-10T23:11:27.881Z,22.4
2019-02-10T23:21:28.152Z,19.7
2019-02-10T23:31:26.925Z,19.3
2019-02-10T23:41:27.370Z,21.6
2019-02-10T23:51:32.821Z,24.1
